sensor_id;sensor_type;location;lat;lon;timestamp;temperature;humidity
48936;DHT22;34745;52.276;10.528;2023-05-31T00:01:21;14.80;1.00
48936;DHT22;34745;52.276;10.528;2023-05-31T00:03:48;14.70;1.00
48936;DHT22;34745;52.276;10.528;2023-05-31T00:06:15;14.70;1.00
48936;DHT22;34745;52.276;10.528;2023-05-31T00:08:42;14.70;1.00
48936;DHT22;34745;52.276;10.528;2023-05-31T00:11:11;14.60;1.00
48936;DHT22;34745;52.276;10.528;2023-05-31T00:13:38;14.50;1.00
48936;DHT22;34745;52.276;10.528;2023-05-31T00:16:10;14.50;1.00
48936;DHT22;34745;52.276;10.528;2023-05-31T00:18:57;14.40;1.00
48936;DHT22;34745;52.276;10.528;2023-05-31T00:21:25;14.40;1.00
48936;DHT22;34745;52.276;10.528;2023-05-31T00:23:52;14.30;1.00
48936;DHT22;34745;52.276;10.528;2023-05-31T00:26:21;14.30;1.00
48936;DHT22;34745;52.276;10.528;2023-05-31T00:28:49;14.20;1.00
48936;DHT22;34745;52.276;10.528;2023-05-31T00:31:16;14.20;1.00
48936;DHT22;34745;52.276;10.528;2023-05-31T00:33:43;14.20;1.00
48936;DHT22;34745;52.276;10.528;2023-05-31T00:36:10;14.10;1.00
48936;DHT22;34745;52.276;10.528;2023-05-31T00:38:37;14.10;1.00
48936;DHT22;34745;52.276;10.528;2023-05-31T00:41:05;14.00;1.00
48936;DHT22;34745;52.276;10.528;2023-05-31T00:43:33;14.00;1.00
48936;DHT22;34745;52.276;10.528;2023-05-31T00:46:01;14.00;1.00
48936;DHT22;34745;52.276;10.528;2023-05-31T00:48:28;13.90;1.00
48936;DHT22;34745;52.276;10.528;2023-05-31T00:50:56;13.90;1.00
48936;DHT22;34745;52.276;10.528;2023-05-31T00:53:24;13.80;1.00
48936;DHT22;34745;52.276;10.528;2023-05-31T00:55:51;13.80;1.00
48936;DHT22;34745;52.276;10.528;2023-05-31T00:58:19;13.80;1.00
48936;DHT22;34745;52.276;10.528;2023-05-31T01:00:48;13.80;1.00
48936;DHT22;34745;52.276;10.528;2023-05-31T01:03:15;13.80;1.00
48936;DHT22;34745;52.276;10.528;2023-05-31T01:05:43;13.90;1.00
48936;DHT22;34745;52.276;10.528;2023-05-31T01:08:11;13.80;1.00
48936;DHT22;34745;52.276;10.528;2023-05-31T01:10:38;13.90;1.00
48936;DHT22;34745;52.276;10.528;2023-05-31T01:13:15;13.90;1.00
48936;DHT22;34745;52.276;10.528;2023-05-31T01:15:50;13.90;1.00
48936;DHT22;34745;52.276;10.528;2023-05-31T01:18:22;13.90;1.00
48936;DHT22;34745;52.276;10.528;2023-05-31T01:21:00;13.80;1.00
48936;DHT22;34745;52.276;10.528;2023-05-31T01:23:34;13.80;1.00
48936;DHT22;34745;52.276;10.528;2023-05-31T01:26:34;13.80;1.00
48936;DHT22;34745;52.276;10.528;2023-05-31T01:29:05;13.70;1.00
48936;DHT22;34745;52.276;10.528;2023-05-31T01:31:35;13.60;1.00
48936;DHT22;34745;52.276;10.528;2023-05-31T01:34:03;13.60;1.00
48936;DHT22;34745;52.276;10.528;2023-05-31T01:36:32;13.60;1.00
48936;DHT22;34745;52.276;10.528;2023-05-31T01:39:01;13.60;1.00
48936;DHT22;34745;52.276;10.528;2023-05-31T01:41:30;13.60;1.00
48936;DHT22;34745;52.276;10.528;2023-05-31T01:43:59;13.60;1.00
48936;DHT22;34745;52.276;10.528;2023-05-31T01:46:27;13.60;1.00
48936;DHT22;34745;52.276;10.528;2023-05-31T01:48:54;13.60;1.00
48936;DHT22;34745;52.276;10.528;2023-05-31T01:51:23;13.50;1.00
48936;DHT22;34745;52.276;10.528;2023-05-31T01:53:50;13.50;1.00
48936;DHT22;34745;52.276;10.528;2023-05-31T01:56:19;13.50;1.00
48936;DHT22;34745;52.276;10.528;2023-05-31T01:58:47;13.50;1.00
48936;DHT22;34745;52.276;10.528;2023-05-31T02:01:18;13.40;1.00
48936;DHT22;34745;52.276;10.528;2023-05-31T02:03:48;13.40;1.00
48936;DHT22;34745;52.276;10.528;2023-05-31T02:06:17;13.40;1.00
48936;DHT22;34745;52.276;10.528;2023-05-31T02:08:44;13.40;1.00
48936;DHT22;34745;52.276;10.528;2023-05-31T02:11:11;13.40;1.00
48936;DHT22;34745;52.276;10.528;2023-05-31T02:13:38;13.30;1.00
48936;DHT22;34745;52.276;10.528;2023-05-31T02:16:06;13.30;1.00
48936;DHT22;34745;52.276;10.528;2023-05-31T02:18:34;13.30;1.00
48936;DHT22;34745;52.276;10.528;2023-05-31T02:21:02;13.20;1.00
48936;DHT22;34745;52.276;10.528;2023-05-31T02:23:30;13.20;1.00
48936;DHT22;34745;52.276;10.528;2023-05-31T02:25:57;13.20;1.00
48936;DHT22;34745;52.276;10.528;2023-05-31T02:28:24;13.20;1.00
48936;DHT22;34745;52.276;10.528;2023-05-31T02:30:55;13.10;1.00
48936;DHT22;34745;52.276;10.528;2023-05-31T02:33:23;13.10;1.00
48936;DHT22;34745;52.276;10.528;2023-05-31T02:35:51;13.00;1.00
48936;DHT22;34745;52.276;10.528;2023-05-31T02:38:19;13.00;1.00
48936;DHT22;34745;52.276;10.528;2023-05-31T02:40:46;12.90;1.00
48936;DHT22;34745;52.276;10.528;2023-05-31T02:43:13;12.90;1.00
48936;DHT22;34745;52.276;10.528;2023-05-31T02:45:40;12.90;1.00
48936;DHT22;34745;52.276;10.528;2023-05-31T02:48:07;12.80;1.00
48936;DHT22;34745;52.276;10.528;2023-05-31T02:50:35;12.80;1.00
48936;DHT22;34745;52.276;10.528;2023-05-31T02:53:03;12.90;1.00
48936;DHT22;34745;52.276;10.528;2023-05-31T02:55:31;12.80;1.00
48936;DHT22;34745;52.276;10.528;2023-05-31T02:57:58;12.80;1.00
48936;DHT22;34745;52.276;10.528;2023-05-31T03:00:25;12.80;1.00
48936;DHT22;34745;52.276;10.528;2023-05-31T03:02:52;12.90;1.00
48936;DHT22;34745;52.276;10.528;2023-05-31T03:05:20;12.90;1.00
48936;DHT22;34745;52.276;10.528;2023-05-31T03:07:48;12.80;1.00
48936;DHT22;34745;52.276;10.528;2023-05-31T03:10:17;12.80;1.00
48936;DHT22;34745;52.276;10.528;2023-05-31T03:12:44;12.90;1.00
48936;DHT22;34745;52.276;10.528;2023-05-31T03:15:11;12.80;1.00
48936;DHT22;34745;52.276;10.528;2023-05-31T03:17:38;12.90;1.00
48936;DHT22;34745;52.276;10.528;2023-05-31T03:20:07;12.80;1.00
48936;DHT22;34745;52.276;10.528;2023-05-31T03:22:36;12.80;1.00
48936;DHT22;34745;52.276;10.528;2023-05-31T03:25:05;12.70;1.00
48936;DHT22;34745;52.276;10.528;2023-05-31T03:27:33;12.60;1.00
48936;DHT22;34745;52.276;10.528;2023-05-31T03:30:00;12.60;1.00
48936;DHT22;34745;52.276;10.528;2023-05-31T03:32:27;12.50;1.00
48936;DHT22;34745;52.276;10.528;2023-05-31T03:34:55;12.50;1.00
48936;DHT22;34745;52.276;10.528;2023-05-31T03:37:22;12.40;1.00
48936;DHT22;34745;52.276;10.528;2023-05-31T03:39:49;12.40;1.00
48936;DHT22;34745;52.276;10.528;2023-05-31T03:42:17;12.50;1.00
48936;DHT22;34745;52.276;10.528;2023-05-31T03:44:46;12.50;1.00
48936;DHT22;34745;52.276;10.528;2023-05-31T03:47:13;12.50;1.00
48936;DHT22;34745;52.276;10.528;2023-05-31T03:49:40;12.60;1.00
48936;DHT22;34745;52.276;10.528;2023-05-31T03:52:08;12.50;1.00
48936;DHT22;34745;52.276;10.528;2023-05-31T03:54:39;12.60;1.00
48936;DHT22;34745;52.276;10.528;2023-05-31T03:57:07;12.60;1.00
48936;DHT22;34745;52.276;10.528;2023-05-31T03:59:34;12.60;1.00
48936;DHT22;34745;52.276;10.528;2023-05-31T04:02:04;12.60;1.00
48936;DHT22;34745;52.276;10.528;2023-05-31T04:04:31;12.60;1.00
48936;DHT22;34745;52.276;10.528;2023-05-31T04:06:59;12.60;1.00
48936;DHT22;34745;52.276;10.528;2023-05-31T04:09:26;12.60;1.00
48936;DHT22;34745;52.276;10.528;2023-05-31T04:11:58;12.60;1.00
48936;DHT22;34745;52.276;10.528;2023-05-31T04:14:25;12.60;1.00
48936;DHT22;34745;52.276;10.528;2023-05-31T04:16:52;12.60;1.00
48936;DHT22;34745;52.276;10.528;2023-05-31T04:19:21;12.80;1.00
48936;DHT22;34745;52.276;10.528;2023-05-31T04:21:48;12.60;1.00
48936;DHT22;34745;52.276;10.528;2023-05-31T04:24:15;12.60;1.00
48936;DHT22;34745;52.276;10.528;2023-05-31T04:26:42;12.70;1.00
48936;DHT22;34745;52.276;10.528;2023-05-31T04:29:09;12.80;1.00
48936;DHT22;34745;52.276;10.528;2023-05-31T04:31:36;12.80;1.00
48936;DHT22;34745;52.276;10.528;2023-05-31T04:34:16;12.80;1.00
48936;DHT22;34745;52.276;10.528;2023-05-31T04:36:46;12.80;1.00
48936;DHT22;34745;52.276;10.528;2023-05-31T04:39:18;12.90;1.00
48936;DHT22;34745;52.276;10.528;2023-05-31T04:41:47;13.00;1.00
48936;DHT22;34745;52.276;10.528;2023-05-31T04:44:14;13.00;1.00
48936;DHT22;34745;52.276;10.528;2023-05-31T04:46:41;13.00;1.00
48936;DHT22;34745;52.276;10.528;2023-05-31T04:49:09;13.10;1.00
48936;DHT22;34745;52.276;10.528;2023-05-31T04:51:36;13.10;1.00
48936;DHT22;34745;52.276;10.528;2023-05-31T04:54:05;13.10;1.00
48936;DHT22;34745;52.276;10.528;2023-05-31T04:56:32;13.20;1.00
48936;DHT22;34745;52.276;10.528;2023-05-31T04:58:59;13.20;1.00
48936;DHT22;34745;52.276;10.528;2023-05-31T05:01:28;13.30;1.00
48936;DHT22;34745;52.276;10.528;2023-05-31T05:03:55;13.30;1.00
48936;DHT22;34745;52.276;10.528;2023-05-31T05:06:22;13.40;1.00
48936;DHT22;34745;52.276;10.528;2023-05-31T05:08:50;13.50;1.00
48936;DHT22;34745;52.276;10.528;2023-05-31T05:11:18;13.50;1.00
48936;DHT22;34745;52.276;10.528;2023-05-31T05:13:45;13.60;1.00
48936;DHT22;34745;52.276;10.528;2023-05-31T05:16:12;13.70;1.00
48936;DHT22;34745;52.276;10.528;2023-05-31T05:18:40;13.70;1.00
48936;DHT22;34745;52.276;10.528;2023-05-31T05:21:07;13.80;1.00
48936;DHT22;34745;52.276;10.528;2023-05-31T05:23:34;13.80;1.00
48936;DHT22;34745;52.276;10.528;2023-05-31T05:26:03;13.90;1.00
48936;DHT22;34745;52.276;10.528;2023-05-31T05:28:31;14.00;1.00
48936;DHT22;34745;52.276;10.528;2023-05-31T05:30:58;14.00;1.00
48936;DHT22;34745;52.276;10.528;2023-05-31T05:33:25;14.10;1.00
48936;DHT22;34745;52.276;10.528;2023-05-31T05:35:55;14.20;1.00
48936;DHT22;34745;52.276;10.528;2023-05-31T05:38:22;14.20;1.00
48936;DHT22;34745;52.276;10.528;2023-05-31T05:40:49;14.20;1.00
48936;DHT22;34745;52.276;10.528;2023-05-31T05:43:16;14.30;1.00
48936;DHT22;34745;52.276;10.528;2023-05-31T05:45:44;14.30;1.00
48936;DHT22;34745;52.276;10.528;2023-05-31T05:48:11;14.40;1.00
48936;DHT22;34745;52.276;10.528;2023-05-31T05:50:38;14.50;1.00
48936;DHT22;34745;52.276;10.528;2023-05-31T05:53:05;14.50;1.00
48936;DHT22;34745;52.276;10.528;2023-05-31T05:55:33;14.60;1.00
48936;DHT22;34745;52.276;10.528;2023-05-31T05:58:01;14.70;1.00
48936;DHT22;34745;52.276;10.528;2023-05-31T06:00:28;14.70;1.00
48936;DHT22;34745;52.276;10.528;2023-05-31T06:02:56;14.80;1.00
48936;DHT22;34745;52.276;10.528;2023-05-31T06:05:23;15.00;1.00
48936;DHT22;34745;52.276;10.528;2023-05-31T06:07:53;15.10;1.00
48936;DHT22;34745;52.276;10.528;2023-05-31T06:10:21;15.20;1.00
48936;DHT22;34745;52.276;10.528;2023-05-31T06:12:48;15.20;1.00
48936;DHT22;34745;52.276;10.528;2023-05-31T06:15:15;15.30;1.00
48936;DHT22;34745;52.276;10.528;2023-05-31T06:17:42;15.40;1.00
48936;DHT22;34745;52.276;10.528;2023-05-31T06:20:11;15.40;1.00
48936;DHT22;34745;52.276;10.528;2023-05-31T06:22:39;15.50;1.00
48936;DHT22;34745;52.276;10.528;2023-05-31T06:25:06;15.60;1.00
48936;DHT22;34745;52.276;10.528;2023-05-31T06:27:35;15.60;1.00
48936;DHT22;34745;52.276;10.528;2023-05-31T06:30:02;15.70;1.00
48936;DHT22;34745;52.276;10.528;2023-05-31T06:32:29;15.80;1.00
48936;DHT22;34745;52.276;10.528;2023-05-31T06:34:57;15.90;1.00
48936;DHT22;34745;52.276;10.528;2023-05-31T06:37:25;15.90;1.00
48936;DHT22;34745;52.276;10.528;2023-05-31T06:39:52;16.00;1.00
48936;DHT22;34745;52.276;10.528;2023-05-31T06:42:21;16.00;1.00
48936;DHT22;34745;52.276;10.528;2023-05-31T06:44:51;16.10;1.00
48936;DHT22;34745;52.276;10.528;2023-05-31T06:47:23;16.10;1.00
48936;DHT22;34745;52.276;10.528;2023-05-31T06:49:50;16.30;1.00
48936;DHT22;34745;52.276;10.528;2023-05-31T06:52:17;16.30;1.00
48936;DHT22;34745;52.276;10.528;2023-05-31T06:54:45;16.30;1.00
48936;DHT22;34745;52.276;10.528;2023-05-31T06:57:13;16.40;1.00
48936;DHT22;34745;52.276;10.528;2023-05-31T06:59:39;16.50;1.00
48936;DHT22;34745;52.276;10.528;2023-05-31T07:02:07;16.60;1.00
48936;DHT22;34745;52.276;10.528;2023-05-31T07:04:34;16.60;1.00
48936;DHT22;34745;52.276;10.528;2023-05-31T07:07:01;16.70;1.00
48936;DHT22;34745;52.276;10.528;2023-05-31T07:09:29;16.80;1.00
48936;DHT22;34745;52.276;10.528;2023-05-31T07:11:57;16.80;1.00
48936;DHT22;34745;52.276;10.528;2023-05-31T07:14:24;16.90;1.00
48936;DHT22;34745;52.276;10.528;2023-05-31T07:16:51;16.90;1.00
48936;DHT22;34745;52.276;10.528;2023-05-31T07:19:18;17.10;1.00
48936;DHT22;34745;52.276;10.528;2023-05-31T07:21:45;17.20;1.00
48936;DHT22;34745;52.276;10.528;2023-05-31T07:24:12;17.30;1.00
48936;DHT22;34745;52.276;10.528;2023-05-31T07:26:39;17.40;1.00
48936;DHT22;34745;52.276;10.528;2023-05-31T07:29:08;17.50;1.00
48936;DHT22;34745;52.276;10.528;2023-05-31T07:31:35;17.60;1.00
48936;DHT22;34745;52.276;10.528;2023-05-31T07:34:02;17.60;1.00
48936;DHT22;34745;52.276;10.528;2023-05-31T07:36:29;17.70;1.00
48936;DHT22;34745;52.276;10.528;2023-05-31T07:38:57;17.70;1.00
48936;DHT22;34745;52.276;10.528;2023-05-31T07:41:26;17.90;1.00
48936;DHT22;34745;52.276;10.528;2023-05-31T07:43:54;18.00;1.00
48936;DHT22;34745;52.276;10.528;2023-05-31T07:46:23;18.00;1.00
48936;DHT22;34745;52.276;10.528;2023-05-31T07:48:50;18.10;1.00
48936;DHT22;34745;52.276;10.528;2023-05-31T07:51:17;18.10;1.00
48936;DHT22;34745;52.276;10.528;2023-05-31T07:53:45;18.00;1.00
48936;DHT22;34745;52.276;10.528;2023-05-31T07:56:12;18.00;1.00
48936;DHT22;34745;52.276;10.528;2023-05-31T07:58:39;18.10;1.00
48936;DHT22;34745;52.276;10.528;2023-05-31T08:01:06;18.20;1.00
48936;DHT22;34745;52.276;10.528;2023-05-31T08:03:34;18.40;1.00
48936;DHT22;34745;52.276;10.528;2023-05-31T08:06:02;18.50;1.00
48936;DHT22;34745;52.276;10.528;2023-05-31T08:08:29;18.50;1.00
48936;DHT22;34745;52.276;10.528;2023-05-31T08:10:56;18.50;1.00
48936;DHT22;34745;52.276;10.528;2023-05-31T08:13:24;18.60;1.00
48936;DHT22;34745;52.276;10.528;2023-05-31T08:15:51;18.70;1.00
48936;DHT22;34745;52.276;10.528;2023-05-31T08:18:19;18.80;1.00
48936;DHT22;34745;52.276;10.528;2023-05-31T08:20:47;18.80;1.00
48936;DHT22;34745;52.276;10.528;2023-05-31T08:23:18;18.70;1.00
48936;DHT22;34745;52.276;10.528;2023-05-31T08:25:45;18.80;1.00
48936;DHT22;34745;52.276;10.528;2023-05-31T08:28:12;18.90;1.00
48936;DHT22;34745;52.276;10.528;2023-05-31T08:30:39;18.90;1.00
48936;DHT22;34745;52.276;10.528;2023-05-31T08:33:07;18.90;1.00
48936;DHT22;34745;52.276;10.528;2023-05-31T08:35:34;18.90;1.00
48936;DHT22;34745;52.276;10.528;2023-05-31T08:38:02;18.90;1.00
48936;DHT22;34745;52.276;10.528;2023-05-31T08:40:29;18.90;1.00
48936;DHT22;34745;52.276;10.528;2023-05-31T08:43:00;19.00;1.00
48936;DHT22;34745;52.276;10.528;2023-05-31T08:45:28;18.80;1.00
48936;DHT22;34745;52.276;10.528;2023-05-31T08:48:02;18.80;1.00
48936;DHT22;34745;52.276;10.528;2023-05-31T08:50:32;18.90;1.00
48936;DHT22;34745;52.276;10.528;2023-05-31T08:53:02;19.00;1.00
48936;DHT22;34745;52.276;10.528;2023-05-31T08:55:30;19.10;1.00
48936;DHT22;34745;52.276;10.528;2023-05-31T08:57:57;19.20;1.00
48936;DHT22;34745;52.276;10.528;2023-05-31T09:00:25;19.20;1.00
48936;DHT22;34745;52.276;10.528;2023-05-31T09:02:52;19.10;1.00
48936;DHT22;34745;52.276;10.528;2023-05-31T09:05:20;19.20;1.00
48936;DHT22;34745;52.276;10.528;2023-05-31T09:07:47;19.30;1.00
48936;DHT22;34745;52.276;10.528;2023-05-31T09:10:17;19.50;1.00
48936;DHT22;34745;52.276;10.528;2023-05-31T09:12:46;19.60;1.00
48936;DHT22;34745;52.276;10.528;2023-05-31T09:15:13;19.60;1.00
48936;DHT22;34745;52.276;10.528;2023-05-31T09:17:44;19.50;1.00
48936;DHT22;34745;52.276;10.528;2023-05-31T09:20:12;19.40;1.00
48936;DHT22;34745;52.276;10.528;2023-05-31T09:22:39;19.50;1.00
48936;DHT22;34745;52.276;10.528;2023-05-31T09:25:08;19.60;1.00
48936;DHT22;34745;52.276;10.528;2023-05-31T09:27:38;19.60;1.00
48936;DHT22;34745;52.276;10.528;2023-05-31T09:30:07;19.60;1.00
48936;DHT22;34745;52.276;10.528;2023-05-31T09:32:35;19.80;1.00
48936;DHT22;34745;52.276;10.528;2023-05-31T09:35:13;20.00;1.00
48936;DHT22;34745;52.276;10.528;2023-05-31T09:37:44;20.10;1.00
48936;DHT22;34745;52.276;10.528;2023-05-31T09:40:21;20.20;1.00
48936;DHT22;34745;52.276;10.528;2023-05-31T09:42:50;20.30;1.00
48936;DHT22;34745;52.276;10.528;2023-05-31T09:45:18;20.20;1.00
48936;DHT22;34745;52.276;10.528;2023-05-31T09:47:46;20.00;1.00
48936;DHT22;34745;52.276;10.528;2023-05-31T09:50:15;20.20;1.00
48936;DHT22;34745;52.276;10.528;2023-05-31T09:52:43;20.20;1.00
48936;DHT22;34745;52.276;10.528;2023-05-31T09:55:12;20.30;1.00
48936;DHT22;34745;52.276;10.528;2023-05-31T09:57:40;20.40;1.00
48936;DHT22;34745;52.276;10.528;2023-05-31T10:00:11;20.40;1.40
48936;DHT22;34745;52.276;10.528;2023-05-31T10:02:49;20.30;99.90
48936;DHT22;34745;52.276;10.528;2023-05-31T10:05:18;20.30;99.90
48936;DHT22;34745;52.276;10.528;2023-05-31T10:07:48;20.40;99.90
48936;DHT22;34745;52.276;10.528;2023-05-31T10:10:15;20.30;1.40
48936;DHT22;34745;52.276;10.528;2023-05-31T10:12:50;20.40;99.90
48936;DHT22;34745;52.276;10.528;2023-05-31T10:15:21;20.30;99.90
48936;DHT22;34745;52.276;10.528;2023-05-31T10:17:57;20.30;99.90
48936;DHT22;34745;52.276;10.528;2023-05-31T10:20:29;20.20;99.90
48936;DHT22;34745;52.276;10.528;2023-05-31T10:23:01;20.20;99.90
48936;DHT22;34745;52.276;10.528;2023-05-31T10:25:33;20.30;99.90
48936;DHT22;34745;52.276;10.528;2023-05-31T10:28:09;20.40;99.90
48936;DHT22;34745;52.276;10.528;2023-05-31T10:30:40;20.50;99.90
48936;DHT22;34745;52.276;10.528;2023-05-31T10:33:11;20.40;99.90
48936;DHT22;34745;52.276;10.528;2023-05-31T10:35:38;20.30;99.90
48936;DHT22;34745;52.276;10.528;2023-05-31T10:38:07;20.40;99.90
48936;DHT22;34745;52.276;10.528;2023-05-31T10:40:38;20.60;99.90
48936;DHT22;34745;52.276;10.528;2023-05-31T10:43:14;20.70;99.90
48936;DHT22;34745;52.276;10.528;2023-05-31T10:45:47;20.60;99.90
48936;DHT22;34745;52.276;10.528;2023-05-31T10:48:19;20.70;99.90
48936;DHT22;34745;52.276;10.528;2023-05-31T10:50:52;20.80;99.90
48936;DHT22;34745;52.276;10.528;2023-05-31T10:53:20;21.00;99.90
48936;DHT22;34745;52.276;10.528;2023-05-31T10:55:47;21.10;99.90
48936;DHT22;34745;52.276;10.528;2023-05-31T10:58:26;21.10;99.90
48936;DHT22;34745;52.276;10.528;2023-05-31T11:01:02;21.20;99.90
48936;DHT22;34745;52.276;10.528;2023-05-31T11:03:32;21.50;99.90
48936;DHT22;34745;52.276;10.528;2023-05-31T11:06:01;21.60;99.90
48936;DHT22;34745;52.276;10.528;2023-05-31T11:08:32;21.70;99.90
48936;DHT22;34745;52.276;10.528;2023-05-31T11:11:28;21.80;99.90
48936;DHT22;34745;52.276;10.528;2023-05-31T11:13:56;21.80;99.90
48936;DHT22;34745;52.276;10.528;2023-05-31T11:16:26;21.80;99.90
48936;DHT22;34745;52.276;10.528;2023-05-31T11:19:04;22.00;99.90
48936;DHT22;34745;52.276;10.528;2023-05-31T11:21:48;22.20;99.90
48936;DHT22;34745;52.276;10.528;2023-05-31T11:24:27;22.20;99.90
48936;DHT22;34745;52.276;10.528;2023-05-31T11:26:56;22.50;99.90
48936;DHT22;34745;52.276;10.528;2023-05-31T11:29:23;22.90;99.90
48936;DHT22;34745;52.276;10.528;2023-05-31T11:32:01;23.30;99.90
48936;DHT22;34745;52.276;10.528;2023-05-31T11:34:30;23.70;99.90
48936;DHT22;34745;52.276;10.528;2023-05-31T11:37:01;24.00;99.90
48936;DHT22;34745;52.276;10.528;2023-05-31T11:39:30;24.50;99.90
48936;DHT22;34745;52.276;10.528;2023-05-31T11:41:58;24.80;99.90
48936;DHT22;34745;52.276;10.528;2023-05-31T11:44:30;25.00;99.90
48936;DHT22;34745;52.276;10.528;2023-05-31T11:47:04;25.20;99.90
48936;DHT22;34745;52.276;10.528;2023-05-31T11:49:32;25.60;99.90
48936;DHT22;34745;52.276;10.528;2023-05-31T11:52:00;25.80;99.90
48936;DHT22;34745;52.276;10.528;2023-05-31T11:54:29;26.00;99.90
48936;DHT22;34745;52.276;10.528;2023-05-31T11:56:59;26.30;99.90
48936;DHT22;34745;52.276;10.528;2023-05-31T11:59:26;26.70;99.90
48936;DHT22;34745;52.276;10.528;2023-05-31T12:01:57;27.10;99.90
48936;DHT22;34745;52.276;10.528;2023-05-31T12:04:32;27.50;99.90
48936;DHT22;34745;52.276;10.528;2023-05-31T12:06:59;27.80;99.90
48936;DHT22;34745;52.276;10.528;2023-05-31T12:09:27;28.10;99.90
48936;DHT22;34745;52.276;10.528;2023-05-31T12:11:55;28.10;99.90
48936;DHT22;34745;52.276;10.528;2023-05-31T12:14:23;28.00;99.90
48936;DHT22;34745;52.276;10.528;2023-05-31T12:16:52;27.50;99.90
48936;DHT22;34745;52.276;10.528;2023-05-31T12:19:19;27.90;99.90
48936;DHT22;34745;52.276;10.528;2023-05-31T12:21:47;28.10;99.90
48936;DHT22;34745;52.276;10.528;2023-05-31T12:24:15;28.80;99.90
48936;DHT22;34745;52.276;10.528;2023-05-31T12:26:44;29.20;99.90
48936;DHT22;34745;52.276;10.528;2023-05-31T12:29:11;29.70;99.90
48936;DHT22;34745;52.276;10.528;2023-05-31T12:31:39;30.30;99.90
48936;DHT22;34745;52.276;10.528;2023-05-31T12:34:08;30.80;99.90
48936;DHT22;34745;52.276;10.528;2023-05-31T12:36:41;31.20;99.90
48936;DHT22;34745;52.276;10.528;2023-05-31T12:39:11;31.40;99.90
48936;DHT22;34745;52.276;10.528;2023-05-31T12:41:40;31.90;99.90
48936;DHT22;34745;52.276;10.528;2023-05-31T12:44:08;32.40;99.90
48936;DHT22;34745;52.276;10.528;2023-05-31T12:46:39;32.40;99.90
48936;DHT22;34745;52.276;10.528;2023-05-31T12:49:19;32.20;99.90
48936;DHT22;34745;52.276;10.528;2023-05-31T12:51:57;31.70;99.90
48936;DHT22;34745;52.276;10.528;2023-05-31T12:54:31;31.70;99.90
48936;DHT22;34745;52.276;10.528;2023-05-31T12:57:00;31.50;99.90
48936;DHT22;34745;52.276;10.528;2023-05-31T12:59:29;30.80;99.90
48936;DHT22;34745;52.276;10.528;2023-05-31T13:01:57;30.80;99.90
48936;DHT22;34745;52.276;10.528;2023-05-31T13:04:24;31.10;99.90
48936;DHT22;34745;52.276;10.528;2023-05-31T13:06:52;31.30;99.90
48936;DHT22;34745;52.276;10.528;2023-05-31T13:09:20;31.80;99.90
48936;DHT22;34745;52.276;10.528;2023-05-31T13:11:48;32.10;99.90
48936;DHT22;34745;52.276;10.528;2023-05-31T13:14:18;32.50;99.90
48936;DHT22;34745;52.276;10.528;2023-05-31T13:16:52;33.10;99.90
48936;DHT22;34745;52.276;10.528;2023-05-31T13:19:20;33.20;99.90
48936;DHT22;34745;52.276;10.528;2023-05-31T13:21:47;33.70;99.90
48936;DHT22;34745;52.276;10.528;2023-05-31T13:24:15;33.60;99.90
48936;DHT22;34745;52.276;10.528;2023-05-31T13:26:42;33.40;99.90
48936;DHT22;34745;52.276;10.528;2023-05-31T13:29:10;33.50;99.90
48936;DHT22;34745;52.276;10.528;2023-05-31T13:31:37;33.30;99.90
48936;DHT22;34745;52.276;10.528;2023-05-31T13:34:05;33.00;99.90
48936;DHT22;34745;52.276;10.528;2023-05-31T13:36:32;32.60;99.90
48936;DHT22;34745;52.276;10.528;2023-05-31T13:39:00;32.70;99.90
48936;DHT22;34745;52.276;10.528;2023-05-31T13:41:27;33.30;99.90
48936;DHT22;34745;52.276;10.528;2023-05-31T13:43:54;33.60;99.90
48936;DHT22;34745;52.276;10.528;2023-05-31T13:46:22;34.00;99.90
48936;DHT22;34745;52.276;10.528;2023-05-31T13:48:50;34.40;99.90
48936;DHT22;34745;52.276;10.528;2023-05-31T13:51:18;34.50;99.90
48936;DHT22;34745;52.276;10.528;2023-05-31T13:53:45;34.50;99.90
48936;DHT22;34745;52.276;10.528;2023-05-31T13:56:12;34.70;99.90
48936;DHT22;34745;52.276;10.528;2023-05-31T13:58:39;34.80;99.90
48936;DHT22;34745;52.276;10.528;2023-05-31T14:01:07;34.50;99.90
48936;DHT22;34745;52.276;10.528;2023-05-31T14:03:37;34.50;99.90
48936;DHT22;34745;52.276;10.528;2023-05-31T14:06:05;34.70;99.90
48936;DHT22;34745;52.276;10.528;2023-05-31T14:08:34;35.00;99.90
48936;DHT22;34745;52.276;10.528;2023-05-31T14:11:01;35.10;99.90
48936;DHT22;34745;52.276;10.528;2023-05-31T14:13:29;35.10;99.90
48936;DHT22;34745;52.276;10.528;2023-05-31T14:15:56;35.40;99.90
48936;DHT22;34745;52.276;10.528;2023-05-31T14:18:23;35.50;99.90
48936;DHT22;34745;52.276;10.528;2023-05-31T14:20:52;35.40;99.90
48936;DHT22;34745;52.276;10.528;2023-05-31T14:23:19;35.20;99.90
48936;DHT22;34745;52.276;10.528;2023-05-31T14:25:46;35.20;99.90
48936;DHT22;34745;52.276;10.528;2023-05-31T14:28:13;34.70;99.90
48936;DHT22;34745;52.276;10.528;2023-05-31T14:30:40;34.60;99.90
48936;DHT22;34745;52.276;10.528;2023-05-31T14:33:07;34.00;99.90
48936;DHT22;34745;52.276;10.528;2023-05-31T14:35:35;33.70;99.90
48936;DHT22;34745;52.276;10.528;2023-05-31T14:38:04;34.10;99.90
48936;DHT22;34745;52.276;10.528;2023-05-31T14:40:51;34.40;99.90
48936;DHT22;34745;52.276;10.528;2023-05-31T14:43:18;34.90;99.90
48936;DHT22;34745;52.276;10.528;2023-05-31T14:45:45;35.00;99.90
48936;DHT22;34745;52.276;10.528;2023-05-31T14:48:14;35.30;99.90
48936;DHT22;34745;52.276;10.528;2023-05-31T14:50:41;35.10;99.90
48936;DHT22;34745;52.276;10.528;2023-05-31T14:53:09;34.80;99.90
48936;DHT22;34745;52.276;10.528;2023-05-31T14:55:40;34.80;99.90
48936;DHT22;34745;52.276;10.528;2023-05-31T14:58:07;34.80;99.90
48936;DHT22;34745;52.276;10.528;2023-05-31T15:00:34;34.50;99.90
48936;DHT22;34745;52.276;10.528;2023-05-31T15:03:02;34.30;99.90
48936;DHT22;34745;52.276;10.528;2023-05-31T15:05:29;34.00;99.90
48936;DHT22;34745;52.276;10.528;2023-05-31T15:07:57;33.60;99.90
48936;DHT22;34745;52.276;10.528;2023-05-31T15:10:25;33.20;99.90
48936;DHT22;34745;52.276;10.528;2023-05-31T15:12:53;33.10;99.90
48936;DHT22;34745;52.276;10.528;2023-05-31T15:15:20;33.60;99.90
48936;DHT22;34745;52.276;10.528;2023-05-31T15:17:48;33.80;99.90
48936;DHT22;34745;52.276;10.528;2023-05-31T15:20:15;33.60;99.90
48936;DHT22;34745;52.276;10.528;2023-05-31T15:22:42;33.90;99.90
48936;DHT22;34745;52.276;10.528;2023-05-31T15:25:09;33.90;99.90
48936;DHT22;34745;52.276;10.528;2023-05-31T15:27:39;34.30;99.90
48936;DHT22;34745;52.276;10.528;2023-05-31T15:30:07;34.70;99.90
48936;DHT22;34745;52.276;10.528;2023-05-31T15:32:34;35.00;99.90
48936;DHT22;34745;52.276;10.528;2023-05-31T15:35:01;35.00;99.90